Time;durP1;ratioP1;P1;durP2;ratioP2;P2;SDS_P1;SDS_P2;PMS_P1;PMS_P2;Temp;Humidity;BMP_temperature;BMP_pressure;BME280_temperature;BME280_humidity;BME280_pressure;Samples;Min_cycle;Max_cycle;Signal;HPM_P1;HPM_P2
2024/02/26 00:01:50;;;;;;;;;;;4.00;66.10;;;;;;5091285;28;19926;-69
2024/02/26 00:04:16;;;;;;;;;;;3.90;66.10;;;;;;5088022;28;19920;-71
2024/02/26 00:06:42;;;;;;;;;;;4.00;65.90;;;;;;5070386;28;19962;-69
2024/02/26 00:09:09;;;;;;;;;;;4.00;66.30;;;;;;5071624;28;19957;-70
2024/02/26 00:11:55;;;;;;;;;;;4.00;66.40;;;;;;5052962;28;19920;-75
2024/02/26 00:14:21;;;;;;;;;;;4.10;65.80;;;;;;5077124;28;20023;-74
2024/02/26 00:16:47;;;;;;;;;;;4.00;65.90;;;;;;5107400;28;19912;-70
2024/02/26 00:19:12;;;;;;;;;;;4.00;65.60;;;;;;5091628;28;19926;-74
2024/02/26 00:21:57;;;;;;;;;;;4.00;65.70;;;;;;5091095;28;20039;-70
2024/02/26 00:24:23;;;;;;;;;;;4.00;65.90;;;;;;5090166;28;19916;-74
2024/02/26 00:26:52;;;;;;;;;;;3.90;66.50;;;;;;5091331;28;20006;-74
2024/02/26 00:29:19;;;;;;;;;;;3.80;66.90;;;;;;5071727;28;19953;-74
2024/02/26 00:31:45;;;;;;;;;;;3.70;67.50;;;;;;5075620;28;19985;-74
2024/02/26 00:34:11;;;;;;;;;;;3.70;67.60;;;;;;5092923;28;19912;-70
2024/02/26 00:36:37;;;;;;;;;;;3.70;67.90;;;;;;5095402;28;20387;-70
2024/02/26 00:39:03;;;;;;;;;;;3.70;67.80;;;;;;5095235;28;19958;-70
2024/02/26 00:41:29;;;;;;;;;;;3.70;67.70;;;;;;5094765;28;19922;-74
2024/02/26 00:43:55;;;;;;;;;;;3.70;67.10;;;;;;5095048;28;19916;-74
2024/02/26 00:46:21;;;;;;;;;;;3.70;68.20;;;;;;5095266;28;20002;-70
2024/02/26 00:48:47;;;;;;;;;;;3.70;68.10;;;;;;5094281;28;19920;-70
2024/02/26 00:51:13;;;;;;;;;;;3.70;67.90;;;;;;5093528;28;19951;-74
2024/02/26 00:53:39;;;;;;;;;;;3.70;67.30;;;;;;5095449;28;19920;-74
2024/02/26 00:56:05;;;;;;;;;;;3.80;67.00;;;;;;5095140;28;20422;-70
2024/02/26 00:58:31;;;;;;;;;;;3.70;67.20;;;;;;5093988;28;19969;-71
2024/02/26 01:00:56;;;;;;;;;;;3.70;67.70;;;;;;5094583;28;20332;-70
2024/02/26 01:03:22;;;;;;;;;;;3.60;67.80;;;;;;5093395;28;20334;-70
2024/02/26 01:05:48;;;;;;;;;;;3.60;67.80;;;;;;5093912;28;19916;-74
2024/02/26 01:08:14;;;;;;;;;;;3.60;67.90;;;;;;5094131;28;20282;-74
2024/02/26 01:10:40;;;;;;;;;;;3.60;68.00;;;;;;5093735;28;19970;-69
2024/02/26 01:13:07;;;;;;;;;;;3.60;67.80;;;;;;5093799;28;20015;-69
2024/02/26 01:15:33;;;;;;;;;;;3.60;67.70;;;;;;5093925;28;19998;-74
2024/02/26 01:17:59;;;;;;;;;;;3.60;67.40;;;;;;5095069;28;19923;-74
2024/02/26 01:20:25;;;;;;;;;;;3.60;67.30;;;;;;5076447;28;20018;-74
2024/02/26 01:22:51;;;;;;;;;;;3.60;67.50;;;;;;5093484;28;20506;-73
2024/02/26 01:25:17;;;;;;;;;;;3.60;68.30;;;;;;5093430;28;20011;-74
2024/02/26 01:27:44;;;;;;;;;;;3.60;67.80;;;;;;5093364;28;19926;-74
2024/02/26 01:30:10;;;;;;;;;;;3.50;67.20;;;;;;5094089;28;19954;-70
2024/02/26 01:32:36;;;;;;;;;;;3.40;67.30;;;;;;5094092;28;19927;-74
2024/02/26 01:35:03;;;;;;;;;;;3.40;67.00;;;;;;5093402;28;20002;-74
2024/02/26 01:37:32;;;;;;;;;;;3.40;67.10;;;;;;5093208;28;19923;-69
2024/02/26 01:39:58;;;;;;;;;;;3.30;66.70;;;;;;5093306;28;19916;-69
2024/02/26 01:42:24;;;;;;;;;;;3.40;67.40;;;;;;5093842;28;19983;-69
2024/02/26 01:44:50;;;;;;;;;;;3.30;67.40;;;;;;5092583;28;19920;-70
2024/02/26 01:47:15;;;;;;;;;;;3.30;67.20;;;;;;5094335;28;19916;-74
2024/02/26 01:49:42;;;;;;;;;;;3.30;67.40;;;;;;5092915;28;19916;-72
2024/02/26 01:52:09;;;;;;;;;;;3.30;67.10;;;;;;5092368;28;19916;-69
2024/02/26 01:54:35;;;;;;;;;;;3.30;67.10;;;;;;5075765;28;19949;-74
2024/02/26 01:57:02;;;;;;;;;;;3.30;66.90;;;;;;5092884;28;19922;-74
2024/02/26 01:59:28;;;;;;;;;;;3.30;67.10;;;;;;5092691;28;20247;-69
2024/02/26 02:01:56;;;;;;;;;;;3.30;67.10;;;;;;5075100;28;19924;-70
2024/02/26 02:04:23;;;;;;;;;;;3.30;67.20;;;;;;5075680;28;19915;-70
2024/02/26 02:06:49;;;;;;;;;;;3.20;67.20;;;;;;5075443;28;19950;-74
2024/02/26 02:09:15;;;;;;;;;;;3.20;67.50;;;;;;5092367;28;20006;-73
2024/02/26 02:11:41;;;;;;;;;;;3.20;67.40;;;;;;5091806;28;20330;-74
2024/02/26 02:14:07;;;;;;;;;;;3.10;67.40;;;;;;5092197;28;19911;-70
2024/02/26 02:16:33;;;;;;;;;;;3.10;67.40;;;;;;5093560;28;19912;-73
2024/02/26 02:18:59;;;;;;;;;;;3.10;66.90;;;;;;5092316;28;19912;-74
2024/02/26 02:21:25;;;;;;;;;;;3.10;67.50;;;;;;5091674;28;20045;-70
2024/02/26 02:23:51;;;;;;;;;;;3.00;67.50;;;;;;5092658;28;19916;-69
2024/02/26 02:26:17;;;;;;;;;;;3.00;67.50;;;;;;5093397;28;20429;-74
2024/02/26 02:28:44;;;;;;;;;;;3.00;67.20;;;;;;5092377;28;20426;-70
2024/02/26 02:31:10;;;;;;;;;;;3.00;67.30;;;;;;5091571;28;19915;-69
2024/02/26 02:33:36;;;;;;;;;;;3.00;67.30;;;;;;5093522;28;19927;-70
2024/02/26 02:36:02;;;;;;;;;;;3.00;67.30;;;;;;5093474;28;20338;-70
2024/02/26 02:38:29;;;;;;;;;;;3.00;67.00;;;;;;5075039;28;19962;-70
2024/02/26 02:40:55;;;;;;;;;;;3.10;67.20;;;;;;5092573;28;19920;-74
2024/02/26 02:43:21;;;;;;;;;;;3.00;67.10;;;;;;5091814;28;20101;-74
2024/02/26 02:45:47;;;;;;;;;;;3.00;67.50;;;;;;5092628;28;19912;-70
2024/02/26 02:48:13;;;;;;;;;;;3.00;67.50;;;;;;5091934;28;19920;-70
2024/02/26 02:50:39;;;;;;;;;;;2.90;67.50;;;;;;5074359;28;19916;-70
2024/02/26 02:53:05;;;;;;;;;;;2.90;67.50;;;;;;5093368;28;19916;-69
2024/02/26 02:55:31;;;;;;;;;;;2.90;67.80;;;;;;5090997;28;20340;-73
2024/02/26 02:57:57;;;;;;;;;;;2.80;67.80;;;;;;5091742;28;19916;-69
2024/02/26 03:00:22;;;;;;;;;;;2.90;67.70;;;;;;5074168;28;20093;-70
2024/02/26 03:02:49;;;;;;;;;;;2.80;67.30;;;;;;5093051;28;20007;-74
2024/02/26 03:05:15;;;;;;;;;;;2.80;66.80;;;;;;5091327;28;20320;-74
2024/02/26 03:07:41;;;;;;;;;;;2.80;66.20;;;;;;5091407;28;19951;-70
2024/02/26 03:10:07;;;;;;;;;;;2.70;66.70;;;;;;5091882;28;19959;-70
2024/02/26 03:12:34;;;;;;;;;;;2.60;65.80;;;;;;5092376;28;19926;-70
2024/02/26 03:15:02;;;;;;;;;;;2.60;66.40;;;;;;5074011;28;19912;-73
2024/02/26 03:17:29;;;;;;;;;;;2.60;66.10;;;;;;5091185;28;19916;-70
2024/02/26 03:19:55;;;;;;;;;;;2.60;67.10;;;;;;5091190;28;19920;-70
2024/02/26 03:22:21;;;;;;;;;;;2.60;66.90;;;;;;5092179;28;19951;-74
2024/02/26 03:24:47;;;;;;;;;;;2.50;66.70;;;;;;5074255;28;20400;-73
2024/02/26 03:27:14;;;;;;;;;;;2.50;67.10;;;;;;5091143;28;19965;-74
2024/02/26 03:29:40;;;;;;;;;;;2.50;67.30;;;;;;5074135;28;19930;-74
2024/02/26 03:32:06;;;;;;;;;;;2.50;67.30;;;;;;5090222;28;20384;-74
2024/02/26 03:37:18;;;;;;;;;;;2.40;67.30;;;;;;5091229;28;20315;-70
2024/02/26 03:39:44;;;;;;;;;;;2.40;68.30;;;;;;5092257;28;19919;-70
2024/02/26 03:42:10;;;;;;;;;;;2.40;68.20;;;;;;5089964;28;19919;-75
2024/02/26 03:44:36;;;;;;;;;;;2.40;68.30;;;;;;5090443;28;20384;-73
2024/02/26 03:47:02;;;;;;;;;;;2.40;68.20;;;;;;5092059;28;19924;-74
2024/02/26 03:49:28;;;;;;;;;;;2.40;68.10;;;;;;5090461;28;20105;-74
2024/02/26 03:51:54;;;;;;;;;;;2.40;68.20;;;;;;5090109;28;19922;-74
2024/02/26 03:54:20;;;;;;;;;;;2.40;67.90;;;;;;5090651;28;19916;-74
2024/02/26 03:56:45;;;;;;;;;;;2.30;67.90;;;;;;5092232;28;19916;-70
2024/02/26 03:59:11;;;;;;;;;;;2.30;68.10;;;;;;5090940;28;19920;-74
2024/02/26 04:01:37;;;;;;;;;;;2.30;68.10;;;;;;5089929;28;19928;-74
2024/02/26 04:04:03;;;;;;;;;;;2.30;67.80;;;;;;5091269;28;19916;-70
2024/02/26 04:06:29;;;;;;;;;;;2.30;68.10;;;;;;5092285;28;19912;-74
2024/02/26 04:08:55;;;;;;;;;;;2.30;68.20;;;;;;5095856;28;20344;-70
2024/02/26 04:11:21;;;;;;;;;;;2.30;68.10;;;;;;5093858;28;20007;-70
2024/02/26 04:13:50;;;;;;;;;;;2.20;67.60;;;;;;5094664;28;20003;-74
2024/02/26 04:16:16;;;;;;;;;;;2.20;67.70;;;;;;5095725;28;19955;-70
2024/02/26 04:18:42;;;;;;;;;;;2.20;67.50;;;;;;5094218;28;19927;-69
2024/02/26 04:21:08;;;;;;;;;;;2.20;67.10;;;;;;5095426;28;19923;-73
2024/02/26 04:23:34;;;;;;;;;;;2.20;67.60;;;;;;5096293;28;20167;-70
2024/02/26 04:26:00;;;;;;;;;;;2.10;67.60;;;;;;5094472;28;19923;-74
2024/02/26 04:28:28;;;;;;;;;;;2.10;67.50;;;;;;5094598;28;19916;-70
2024/02/26 04:30:55;;;;;;;;;;;2.10;67.20;;;;;;5094989;28;19920;-74
2024/02/26 04:33:21;;;;;;;;;;;2.10;67.20;;;;;;5093990;28;19920;-74
2024/02/26 04:35:47;;;;;;;;;;;2.10;67.10;;;;;;5095495;28;19938;-70
2024/02/26 04:38:13;;;;;;;;;;;2.20;67.10;;;;;;5094373;28;20010;-70
2024/02/26 04:40:39;;;;;;;;;;;2.20;67.60;;;;;;5076746;28;19916;-71
2024/02/26 04:43:05;;;;;;;;;;;2.20;67.50;;;;;;5094091;28;19924;-74
2024/02/26 04:45:30;;;;;;;;;;;2.30;67.30;;;;;;5095422;28;19998;-71
2024/02/26 04:47:56;;;;;;;;;;;2.30;67.60;;;;;;5094124;28;20456;-70
2024/02/26 04:50:22;;;;;;;;;;;2.20;68.20;;;;;;5093601;28;20429;-74
2024/02/26 04:52:49;;;;;;;;;;;2.30;68.50;;;;;;5094040;28;20393;-70
2024/02/26 04:55:15;;;;;;;;;;;2.20;68.30;;;;;;5094945;28;19998;-69
2024/02/26 04:57:41;;;;;;;;;;;2.30;68.20;;;;;;5093630;28;20408;-74
2024/02/26 05:00:08;;;;;;;;;;;2.20;67.30;;;;;;5093239;28;19918;-70
2024/02/26 05:02:37;;;;;;;;;;;2.10;67.40;;;;;;5095010;28;19920;-74
2024/02/26 05:05:05;;;;;;;;;;;2.10;67.90;;;;;;5094700;28;19925;-70
2024/02/26 05:07:31;;;;;;;;;;;2.10;67.60;;;;;;5095032;28;19920;-71
2024/02/26 05:09:57;;;;;;;;;;;2.10;68.50;;;;;;5093427;28;19911;-73
2024/02/26 05:12:23;;;;;;;;;;;2.00;68.60;;;;;;5094024;28;20365;-74
2024/02/26 05:14:48;;;;;;;;;;;2.00;68.90;;;;;;5094835;28;19912;-70
2024/02/26 05:17:14;;;;;;;;;;;2.00;69.20;;;;;;5094843;28;19974;-74
2024/02/26 05:19:40;;;;;;;;;;;2.00;68.80;;;;;;5092756;28;20007;-73
2024/02/26 05:22:06;;;;;;;;;;;2.00;69.00;;;;;;5092536;28;20015;-70
2024/02/26 05:24:32;;;;;;;;;;;2.10;69.20;;;;;;5093208;28;19912;-69
2024/02/26 05:26:59;;;;;;;;;;;2.10;69.20;;;;;;5094665;28;20440;-69
2024/02/26 05:29:25;;;;;;;;;;;2.10;69.20;;;;;;5093285;28;19946;-70
2024/02/26 05:31:50;;;;;;;;;;;2.20;69.10;;;;;;5092597;28;19920;-74
2024/02/26 05:34:16;;;;;;;;;;;2.20;69.10;;;;;;5092800;28;20011;-70
2024/02/26 05:36:42;;;;;;;;;;;2.20;68.90;;;;;;5092950;28;19920;-69
2024/02/26 05:39:10;;;;;;;;;;;2.30;69.10;;;;;;5094083;28;20002;-70
2024/02/26 05:41:36;;;;;;;;;;;2.20;69.70;;;;;;5093862;28;20003;-74
2024/02/26 05:44:03;;;;;;;;;;;2.20;69.50;;;;;;5093729;28;19923;-70
2024/02/26 05:46:29;;;;;;;;;;;2.30;69.30;;;;;;5075887;28;19956;-74
2024/02/26 05:48:55;;;;;;;;;;;2.30;69.50;;;;;;5092553;28;19917;-74
2024/02/26 05:51:21;;;;;;;;;;;2.30;70.10;;;;;;5092080;28;19922;-70
2024/02/26 05:53:53;;;;;;;;;;;2.30;70.40;;;;;;5093986;28;19999;-74
2024/02/26 05:56:20;;;;;;;;;;;2.20;70.30;;;;;;5093840;28;19954;-74
2024/02/26 05:58:46;;;;;;;;;;;2.20;71.20;;;;;;5093907;28;19916;-74
2024/02/26 06:01:12;;;;;;;;;;;2.20;71.00;;;;;;5091984;28;20447;-70
2024/02/26 06:03:38;;;;;;;;;;;2.30;70.50;;;;;;5093797;28;20014;-70
2024/02/26 06:06:04;;;;;;;;;;;2.40;70.50;;;;;;5092258;28;20519;-70
2024/02/26 06:08:30;;;;;;;;;;;2.40;69.60;;;;;;5092692;28;19916;-74
2024/02/26 06:10:56;;;;;;;;;;;2.40;70.70;;;;;;5093206;28;19962;-70
2024/02/26 06:13:22;;;;;;;;;;;2.40;71.00;;;;;;5092364;28;20011;-74
2024/02/26 06:15:48;;;;;;;;;;;2.40;71.00;;;;;;5093570;28;19919;-70
2024/02/26 06:18:14;;;;;;;;;;;2.50;70.90;;;;;;5075204;28;19934;-69
2024/02/26 06:20:40;;;;;;;;;;;2.50;70.60;;;;;;5092959;28;19999;-70
2024/02/26 06:23:07;;;;;;;;;;;2.50;70.60;;;;;;5092029;28;20039;-73
2024/02/26 06:25:33;;;;;;;;;;;2.50;70.40;;;;;;5093156;28;19915;-71
2024/02/26 06:27:59;;;;;;;;;;;2.40;70.30;;;;;;5091941;28;19926;-74
2024/02/26 06:30:25;;;;;;;;;;;2.40;70.40;;;;;;5091997;28;20179;-71
2024/02/26 06:32:50;;;;;;;;;;;2.50;70.30;;;;;;5091678;28;19927;-71
2024/02/26 06:35:16;;;;;;;;;;;2.50;70.00;;;;;;5091743;28;20317;-70
2024/02/26 06:37:42;;;;;;;;;;;2.50;70.00;;;;;;5093509;28;20007;-74
2024/02/26 06:40:08;;;;;;;;;;;2.60;70.10;;;;;;5092447;28;19934;-74
2024/02/26 06:42:34;;;;;;;;;;;2.60;69.30;;;;;;5091911;28;19924;-74
2024/02/26 06:45:01;;;;;;;;;;;2.70;69.90;;;;;;5092551;28;19946;-70
2024/02/26 06:47:27;;;;;;;;;;;2.70;69.60;;;;;;5092723;28;19926;-70
2024/02/26 06:49:53;;;;;;;;;;;2.80;70.00;;;;;;5091781;28;20351;-70
2024/02/26 06:52:19;;;;;;;;;;;2.80;69.90;;;;;;5092316;28;20348;-74
2024/02/26 06:54:45;;;;;;;;;;;2.80;70.10;;;;;;5091500;28;20041;-74
2024/02/26 06:57:11;;;;;;;;;;;2.90;70.30;;;;;;5092879;28;19956;-74
2024/02/26 06:59:37;;;;;;;;;;;2.90;70.20;;;;;;5091364;28;19952;-70
2024/02/26 07:02:03;;;;;;;;;;;2.90;70.10;;;;;;5090791;28;20561;-74
2024/02/26 07:04:31;;;;;;;;;;;3.00;69.60;;;;;;5091216;28;19916;-74
2024/02/26 07:06:57;;;;;;;;;;;3.10;70.00;;;;;;5092638;28;19920;-70
2024/02/26 07:09:22;;;;;;;;;;;3.20;70.40;;;;;;5091189;28;20266;-70
2024/02/26 07:11:48;;;;;;;;;;;3.20;70.20;;;;;;5091889;28;20453;-69
2024/02/26 07:14:14;;;;;;;;;;;3.20;70.50;;;;;;5092255;28;20408;-74
2024/02/26 07:16:40;;;;;;;;;;;3.20;70.80;;;;;;5091125;28;20425;-70
2024/02/26 07:19:06;;;;;;;;;;;3.20;70.80;;;;;;5091017;28;20372;-74
2024/02/26 07:21:32;;;;;;;;;;;3.30;71.40;;;;;;5090558;28;20404;-74
2024/02/26 07:23:58;;;;;;;;;;;3.40;71.40;;;;;;5091021;28;20015;-70
2024/02/26 07:26:25;;;;;;;;;;;3.50;72.10;;;;;;5090951;28;20357;-70
2024/02/26 07:28:52;;;;;;;;;;;3.60;72.70;;;;;;5092102;28;19916;-70
2024/02/26 07:31:18;;;;;;;;;;;3.60;72.70;;;;;;5090183;28;20392;-70
2024/02/26 07:33:44;;;;;;;;;;;3.70;73.00;;;;;;5090656;28;19961;-70
2024/02/26 07:36:09;;;;;;;;;;;3.90;73.20;;;;;;5090865;28;20002;-74
2024/02/26 07:38:35;;;;;;;;;;;3.90;72.90;;;;;;5092574;28;19962;-72
2024/02/26 07:41:02;;;;;;;;;;;4.10;72.80;;;;;;5090228;28;19923;-70
2024/02/26 07:43:28;;;;;;;;;;;4.20;72.10;;;;;;5090690;28;19950;-73
2024/02/26 07:45:54;;;;;;;;;;;4.40;72.10;;;;;;5091856;28;20073;-70
2024/02/26 07:48:20;;;;;;;;;;;4.50;72.50;;;;;;5092442;28;19967;-70
2024/02/26 07:50:46;;;;;;;;;;;4.60;72.40;;;;;;5090508;28;20444;-74
2024/02/26 07:53:13;;;;;;;;;;;4.70;72.40;;;;;;5073765;28;19923;-70
2024/02/26 07:55:39;;;;;;;;;;;4.80;72.10;;;;;;5090434;28;20467;-70
2024/02/26 07:58:05;;;;;;;;;;;4.80;72.50;;;;;;5091641;28;19920;-70
2024/02/26 08:00:30;;;;;;;;;;;5.00;72.10;;;;;;5091282;28;20430;-70
2024/02/26 08:02:56;;;;;;;;;;;5.20;71.70;;;;;;5091931;28;20269;-74
2024/02/26 08:05:22;;;;;;;;;;;5.40;71.50;;;;;;5092441;28;19920;-73
2024/02/26 08:07:48;;;;;;;;;;;5.50;71.00;;;;;;5092087;28;20373;-70
2024/02/26 08:10:14;;;;;;;;;;;5.80;70.20;;;;;;5091012;28;20008;-70
2024/02/26 08:12:40;;;;;;;;;;;6.00;69.40;;;;;;5090631;28;19920;-74
2024/02/26 08:15:07;;;;;;;;;;;6.30;69.60;;;;;;5091593;28;19972;-71
2024/02/26 08:17:33;;;;;;;;;;;6.60;68.90;;;;;;5090608;28;19924;-70
2024/02/26 08:19:59;;;;;;;;;;;6.90;69.00;;;;;;5073507;28;20383;-73
2024/02/26 08:22:26;;;;;;;;;;;7.20;68.40;;;;;;5089924;28;20288;-71
2024/02/26 08:24:51;;;;;;;;;;;7.60;67.80;;;;;;5090648;28;20022;-74
2024/02/26 08:27:17;;;;;;;;;;;8.80;66.50;;;;;;5090314;28;20003;-70
2024/02/26 08:29:43;;;;;;;;;;;9.90;64.10;;;;;;5091578;28;19918;-74
2024/02/26 08:32:10;;;;;;;;;;;11.00;61.40;;;;;;5089681;28;19924;-70
2024/02/26 08:34:36;;;;;;;;;;;12.00;58.30;;;;;;5091394;28;19918;-73
2024/02/26 08:37:02;;;;;;;;;;;12.90;56.60;;;;;;5090147;28;20287;-74
2024/02/26 08:39:28;;;;;;;;;;;13.70;55.10;;;;;;5091597;28;20430;-70
2024/02/26 08:41:54;;;;;;;;;;;14.40;51.40;;;;;;5091050;28;19948;-70
2024/02/26 08:44:20;;;;;;;;;;;15.00;50.20;;;;;;5091135;28;19912;-70
2024/02/26 08:46:45;;;;;;;;;;;15.50;47.40;;;;;;5090198;28;19919;-74
2024/02/26 08:49:12;;;;;;;;;;;16.00;44.90;;;;;;5091274;28;19991;-70
2024/02/26 08:51:56;;;;;;;;;;;16.70;42.70;;;;;;5090818;28;19928;-74
2024/02/26 08:54:24;;;;;;;;;;;17.20;41.20;;;;;;5091588;28;19919;-74
2024/02/26 08:56:49;;;;;;;;;;;17.40;39.40;;;;;;5093569;28;20022;-74
2024/02/26 08:59:16;;;;;;;;;;;17.70;39.10;;;;;;5095046;28;20046;-74
2024/02/26 09:01:42;;;;;;;;;;;18.20;37.60;;;;;;5094499;28;20007;-70
2024/02/26 09:04:08;;;;;;;;;;;18.50;35.80;;;;;;5094619;28;19916;-74
2024/02/26 09:06:34;;;;;;;;;;;19.00;35.30;;;;;;5095284;28;19963;-70
2024/02/26 09:09:00;;;;;;;;;;;19.60;33.80;;;;;;5094549;28;19918;-70
2024/02/26 09:11:26;;;;;;;;;;;20.10;32.20;;;;;;5094462;28;19922;-74
2024/02/26 09:13:51;;;;;;;;;;;20.70;30.00;;;;;;5094577;28;20005;-70
2024/02/26 09:16:17;;;;;;;;;;;21.20;29.50;;;;;;5094521;28;20368;-70
2024/02/26 09:18:43;;;;;;;;;;;21.70;29.80;;;;;;5094628;28;20397;-74
2024/02/26 09:21:09;;;;;;;;;;;22.00;28.60;;;;;;5075896;28;19920;-75
2024/02/26 09:23:36;;;;;;;;;;;22.00;29.00;;;;;;5095052;28;19958;-70
2024/02/26 09:26:02;;;;;;;;;;;21.90;29.20;;;;;;5093351;28;19916;-74
2024/02/26 09:28:31;;;;;;;;;;;21.90;28.40;;;;;;5093240;28;19923;-70
2024/02/26 09:30:57;;;;;;;;;;;22.10;28.20;;;;;;5093829;28;19916;-74
2024/02/26 09:33:23;;;;;;;;;;;22.80;26.90;;;;;;5094575;28;20370;-70
2024/02/26 09:35:49;;;;;;;;;;;23.50;26.00;;;;;;5094349;28;20015;-75
2024/02/26 09:38:15;;;;;;;;;;;23.50;24.30;;;;;;5094644;28;19928;-70
2024/02/26 09:40:41;;;;;;;;;;;22.90;25.00;;;;;;5092395;28;19920;-70
2024/02/26 09:43:10;;;;;;;;;;;22.20;25.40;;;;;;5093042;28;19974;-71
2024/02/26 09:45:36;;;;;;;;;;;21.60;26.40;;;;;;5075727;28;19916;-70
2024/02/26 09:48:03;;;;;;;;;;;21.40;26.80;;;;;;5093111;28;20283;-74
2024/02/26 09:50:29;;;;;;;;;;;21.40;26.20;;;;;;5092658;28;19916;-71
2024/02/26 09:52:59;;;;;;;;;;;21.20;27.10;;;;;;5092691;28;20300;-70
2024/02/26 09:55:25;;;;;;;;;;;20.90;26.80;;;;;;5092595;28;19916;-70
2024/02/26 09:57:52;;;;;;;;;;;21.00;26.50;;;;;;5094017;28;19920;-71
2024/02/26 10:03:05;;;;;;;;;;;21.40;26.30;;;;;;5092473;28;20010;-70
2024/02/26 10:05:33;;;;;;;;;;;21.30;26.70;;;;;;5092568;28;20423;-74
2024/02/26 10:08:01;;;;;;;;;;;21.20;26.40;;;;;;5092595;28;20418;-70
2024/02/26 10:10:29;;;;;;;;;;;21.20;26.70;;;;;;5092209;28;19920;-74
2024/02/26 10:12:55;;;;;;;;;;;21.10;25.60;;;;;;5092409;28;19931;-74
2024/02/26 10:15:21;;;;;;;;;;;20.90;26.50;;;;;;5093602;28;19991;-74
2024/02/26 10:17:47;;;;;;;;;;;20.80;26.90;;;;;;5093965;28;19920;-74
2024/02/26 10:23:03;;;;;;;;;;;20.40;27.00;;;;;;5092431;28;20011;-70
2024/02/26 10:25:31;;;;;;;;;;;20.50;26.30;;;;;;5092037;28;20432;-75
2024/02/26 10:28:02;;;;;;;;;;;20.60;26.20;;;;;;5092276;28;19920;-74
2024/02/26 10:30:28;;;;;;;;;;;20.30;26.30;;;;;;5092897;28;19966;-74
2024/02/26 10:32:54;;;;;;;;;;;20.30;27.00;;;;;;5074908;28;19920;-74
2024/02/26 10:35:20;;;;;;;;;;;20.60;26.20;;;;;;5093352;28;19912;-70
2024/02/26 10:37:47;;;;;;;;;;;20.60;27.30;;;;;;5091633;28;20341;-75
2024/02/26 10:40:14;;;;;;;;;;;20.40;27.10;;;;;;5091285;28;20417;-75
2024/02/26 10:42:41;;;;;;;;;;;20.10;26.40;;;;;;5091834;28;20369;-70
2024/02/26 10:45:09;;;;;;;;;;;19.90;27.00;;;;;;5092982;28;19915;-74
2024/02/26 10:47:35;;;;;;;;;;;19.80;26.80;;;;;;5091710;28;20386;-70
2024/02/26 10:50:03;;;;;;;;;;;19.90;26.90;;;;;;5074924;28;20377;-74
2024/02/26 10:52:32;;;;;;;;;;;21.00;26.50;;;;;;5091221;28;19919;-74
2024/02/26 10:55:02;;;;;;;;;;;21.30;25.60;;;;;;5074582;28;19920;-75
2024/02/26 10:57:32;;;;;;;;;;;21.60;23.80;;;;;;5074797;28;20426;-75
2024/02/26 10:59:58;;;;;;;;;;;21.80;24.00;;;;;;5074491;28;19945;-70
2024/02/26 11:02:23;;;;;;;;;;;21.90;23.70;;;;;;5073756;28;19916;-75
2024/02/26 11:04:50;;;;;;;;;;;21.70;24.10;;;;;;5091225;28;19923;-74
2024/02/26 11:07:16;;;;;;;;;;;21.30;24.40;;;;;;5074306;28;20380;-70
2024/02/26 11:09:44;;;;;;;;;;;21.00;24.90;;;;;;5091165;28;19912;-70
2024/02/26 11:12:29;;;;;;;;;;;20.60;24.50;;;;;;5090526;28;19931;-75
2024/02/26 11:14:56;;;;;;;;;;;20.50;25.50;;;;;;5091086;28;19915;-75
2024/02/26 11:17:23;;;;;;;;;;;20.30;25.70;;;;;;5091946;28;19920;-74
2024/02/26 11:19:50;;;;;;;;;;;20.10;25.80;;;;;;5090987;28;19918;-71
2024/02/26 11:22:16;;;;;;;;;;;20.40;26.90;;;;;;5090413;28;20338;-70
2024/02/26 11:24:42;;;;;;;;;;;20.40;26.00;;;;;;5090885;28;20003;-74
2024/02/26 11:27:10;;;;;;;;;;;20.60;25.50;;;;;;5092242;28;20297;-70
2024/02/26 11:29:55;;;;;;;;;;;20.20;25.30;;;;;;5090759;28;19912;-74
2024/02/26 11:32:21;;;;;;;;;;;20.00;25.70;;;;;;5073125;28;20454;-72
2024/02/26 11:34:48;;;;;;;;;;;20.10;27.10;;;;;;5091868;28;19912;-73
2024/02/26 11:37:17;;;;;;;;;;;21.00;25.70;;;;;;5091050;28;20358;-74
2024/02/26 11:39:45;;;;;;;;;;;22.60;24.70;;;;;;5073989;28;20376;-70
2024/02/26 11:42:15;;;;;;;;;;;23.20;22.90;;;;;;5090131;28;19924;-70
2024/02/26 11:44:41;;;;;;;;;;;23.90;22.10;;;;;;5091684;28;19959;-70
2024/02/26 11:47:22;;;;;;;;;;;24.30;20.90;;;;;;5091938;28;20272;-75
2024/02/26 11:49:48;;;;;;;;;;;24.20;21.20;;;;;;5090675;28;20376;-74
2024/02/26 11:52:15;;;;;;;;;;;24.00;21.10;;;;;;5090351;28;19926;-70
2024/02/26 11:54:59;;;;;;;;;;;24.00;21.10;;;;;;5091876;28;20385;-70
2024/02/26 11:57:39;;;;;;;;;;;23.10;21.00;;;;;;5091869;28;20276;-70
2024/02/26 12:00:12;;;;;;;;;;;22.40;21.40;;;;;;5090003;28;19973;-74
2024/02/26 12:02:43;;;;;;;;;;;21.90;22.10;;;;;;5073621;28;19920;-70
2024/02/26 12:05:15;;;;;;;;;;;21.80;22.70;;;;;;5091508;28;19916;-70
2024/02/26 12:08:06;;;;;;;;;;;22.20;22.70;;;;;;5091889;28;19951;-74
2024/02/26 12:10:35;;;;;;;;;;;23.20;21.30;;;;;;5089814;28;19916;-75
2024/02/26 12:13:20;;;;;;;;;;;24.00;20.60;;;;;;5090469;28;20044;-70
2024/02/26 12:16:05;;;;;;;;;;;23.30;20.70;;;;;;5073778;28;19956;-75
2024/02/26 12:18:31;;;;;;;;;;;22.90;21.30;;;;;;5090651;28;19920;-74
2024/02/26 12:21:03;;;;;;;;;;;22.60;21.80;;;;;;5073007;28;20400;-70
2024/02/26 12:23:30;;;;;;;;;;;22.40;22.40;;;;;;5090627;28;19927;-75
2024/02/26 12:25:59;;;;;;;;;;;22.40;21.60;;;;;;5090329;28;19922;-74
2024/02/26 12:28:29;;;;;;;;;;;23.20;21.90;;;;;;5090763;28;19924;-74
2024/02/26 12:30:55;;;;;;;;;;;24.00;21.40;;;;;;5093772;28;20003;-74
2024/02/26 12:33:21;;;;;;;;;;;24.50;19.30;;;;;;5094300;28;19920;-75
2024/02/26 12:35:48;;;;;;;;;;;24.50;20.60;;;;;;5094115;28;19919;-70
2024/02/26 12:38:17;;;;;;;;;;;24.60;20.20;;;;;;5094365;28;19926;-74
2024/02/26 12:40:43;;;;;;;;;;;24.80;20.20;;;;;;5093636;28;19920;-70
2024/02/26 12:43:12;;;;;;;;;;;24.50;20.70;;;;;;5094151;28;19924;-71
2024/02/26 12:45:57;;;;;;;;;;;25.10;20.50;;;;;;5095271;28;19912;-70
2024/02/26 12:48:23;;;;;;;;;;;26.60;18.60;;;;;;5093782;28;19920;-70
2024/02/26 12:50:49;;;;;;;;;;;27.60;17.10;;;;;;5076405;28;19999;-74
2024/02/26 12:53:15;;;;;;;;;;;28.60;15.70;;;;;;5095418;28;20410;-70
2024/02/26 12:55:41;;;;;;;;;;;30.20;15.30;;;;;;5093855;28;19912;-70
2024/02/26 12:58:08;;;;;;;;;;;30.90;14.00;;;;;;5093814;28;19924;-70
2024/02/26 13:00:34;;;;;;;;;;;29.50;13.80;;;;;;5093222;28;20277;-74
2024/02/26 13:03:00;;;;;;;;;;;28.60;15.10;;;;;;5093783;28;19928;-75
2024/02/26 13:05:26;;;;;;;;;;;29.00;15.00;;;;;;5093724;28;19962;-74
2024/02/26 13:07:53;;;;;;;;;;;28.00;15.30;;;;;;5076839;28;19993;-70
2024/02/26 13:10:20;;;;;;;;;;;27.50;16.30;;;;;;5093103;28;19912;-74
2024/02/26 13:13:04;;;;;;;;;;;27.00;16.60;;;;;;5093614;28;19926;-70
2024/02/26 13:15:30;;;;;;;;;;;26.90;16.80;;;;;;5076523;28;20447;-74
2024/02/26 13:17:56;;;;;;;;;;;27.00;17.10;;;;;;5076689;28;20015;-72
2024/02/26 13:20:40;;;;;;;;;;;27.70;15.90;;;;;;5092925;28;19950;-70
2024/02/26 13:23:26;;;;;;;;;;;27.50;16.30;;;;;;5093292;28;19920;-75
2024/02/26 13:25:56;;;;;;;;;;;27.10;16.50;;;;;;5094491;28;19912;-74
2024/02/26 13:28:24;;;;;;;;;;;27.00;16.60;;;;;;5095140;28;20325;-74
2024/02/26 13:30:57;;;;;;;;;;;26.70;16.70;;;;;;5092735;28;19916;-70
2024/02/26 13:33:24;;;;;;;;;;;26.10;17.10;;;;;;5093122;28;19920;-70
2024/02/26 13:35:50;;;;;;;;;;;27.00;16.60;;;;;;5093009;28;19951;-70
2024/02/26 13:38:17;;;;;;;;;;;29.50;14.70;;;;;;5093073;28;19926;-74
2024/02/26 13:40:43;;;;;;;;;;;31.60;12.10;;;;;;5092222;28;20006;-70
2024/02/26 13:43:09;;;;;;;;;;;32.00;11.30;;;;;;5094390;28;19923;-71
2024/02/26 13:45:36;;;;;;;;;;;32.70;11.60;;;;;;5094373;28;19981;-70
2024/02/26 13:48:03;;;;;;;;;;;32.20;12.30;;;;;;5076092;28;19946;-71
2024/02/26 13:50:29;;;;;;;;;;;32.50;12.00;;;;;;5092156;28;19927;-75
2024/02/26 13:52:56;;;;;;;;;;;33.60;10.30;;;;;;5092788;28;19920;-74
2024/02/26 13:55:24;;;;;;;;;;;34.20;11.00;;;;;;5075861;28;19916;-71
2024/02/26 13:57:51;;;;;;;;;;;34.20;10.90;;;;;;5092792;28;19916;-71
2024/02/26 14:00:18;;;;;;;;;;;33.80;11.00;;;;;;5092194;28;19923;-75
2024/02/26 14:02:44;;;;;;;;;;;34.30;11.10;;;;;;5094263;28;19920;-71
2024/02/26 14:05:09;;;;;;;;;;;34.50;10.60;;;;;;5093731;28;19920;-70
2024/02/26 14:07:35;;;;;;;;;;;33.50;10.60;;;;;;5092713;28;19928;-70
2024/02/26 14:10:01;;;;;;;;;;;31.80;11.10;;;;;;5093586;28;19912;-74
2024/02/26 14:12:27;;;;;;;;;;;29.80;12.10;;;;;;5093247;28;19924;-70
2024/02/26 14:14:55;;;;;;;;;;;28.00;14.90;;;;;;5093609;28;19912;-74
2024/02/26 14:17:34;;;;;;;;;;;26.40;15.90;;;;;;5092230;28;19920;-70
2024/02/26 14:20:00;;;;;;;;;;;25.30;16.70;;;;;;5093589;28;20426;-74
2024/02/26 14:22:26;;;;;;;;;;;24.60;18.10;;;;;;5093059;28;19927;-70
2024/02/26 14:24:53;;;;;;;;;;;24.20;18.40;;;;;;5093326;28;19912;-71
2024/02/26 14:27:21;;;;;;;;;;;23.60;19.10;;;;;;5093560;28;20261;-70
2024/02/26 14:29:48;;;;;;;;;;;23.10;19.80;;;;;;5092056;28;20002;-70
2024/02/26 14:32:14;;;;;;;;;;;22.50;20.40;;;;;;5092752;28;19977;-70